Weirton, West Virginia
Current Conditions -  °F | °C
As of 10:53 PM on Friday 24 Oct 2014 (Local Time) from KHLG Reporting Station
Clear Clear  
Wind Chill: 47°   Ceiling: Unl
Heat Index: 49°   Visibility: 10mi
Dew Point: 38°   Wind: 6mph
Humidity: 66%   Direction: 200°SSW
Pressure: 30.02"   Gusts: NA
Location:  40.42°N, 80.59°W
Report Text: KHLG 250253Z AUTO 20005KT 10SM CLR 09/03 A3002 RMK AO2 SLP172 T00940033 52000
Loading
Personal Weather Stations






























Interactive Weather Map
Tropical Storm Tracking
New forecast layout! Learn more

10-Day Weather Forecast

Advertisements
Track Severe Weather on mobile